createdAt,value
2022-12-03T00:02:21.174Z,2.70
2022-12-03T00:04:47.978Z,2.60
2022-12-03T00:07:14.676Z,2.50
2022-12-03T00:09:41.597Z,2.60
2022-12-03T00:12:08.596Z,2.50
2022-12-03T00:14:37.815Z,2.50
2022-12-03T00:17:08.028Z,2.50
2022-12-03T00:19:34.956Z,2.50
2022-12-03T00:22:01.605Z,2.40
2022-12-03T00:24:28.273Z,2.40
2022-12-03T00:26:55.210Z,2.50
2022-12-03T00:29:21.951Z,2.50
2022-12-03T00:31:48.774Z,2.40
2022-12-03T00:34:15.441Z,2.30
2022-12-03T00:36:42.244Z,2.20
2022-12-03T00:39:08.911Z,2.20
2022-12-03T00:41:36.249Z,2.20
2022-12-03T00:44:03.030Z,2.30
2022-12-03T00:46:29.811Z,2.20
2022-12-03T00:48:56.541Z,2.10
2022-12-03T00:51:23.271Z,2.10
2022-12-03T00:53:50.074Z,2.20
2022-12-03T00:56:16.985Z,2.30
2022-12-03T00:58:43.665Z,2.30
2022-12-03T01:01:10.341Z,2.50
2022-12-03T01:03:37.102Z,2.50
2022-12-03T01:06:04.396Z,2.50
2022-12-03T01:08:31.139Z,2.40
2022-12-03T01:10:57.806Z,2.50
2022-12-03T01:13:24.491Z,2.40
2022-12-03T01:15:51.260Z,2.40
2022-12-03T01:18:18.043Z,2.30
2022-12-03T01:20:45.003Z,2.40
2022-12-03T01:23:11.729Z,2.40
2022-12-03T01:25:38.487Z,2.40
2022-12-03T01:28:05.256Z,2.50
2022-12-03T01:30:51.984Z,2.50
2022-12-03T01:33:18.890Z,2.50
2022-12-03T01:35:45.595Z,2.40
2022-12-03T01:38:12.308Z,2.30
2022-12-03T01:40:39.348Z,2.30
2022-12-03T01:43:06.030Z,2.30
2022-12-03T01:45:32.730Z,2.30
2022-12-03T01:47:59.674Z,2.40
2022-12-03T01:50:31.782Z,2.40
2022-12-03T01:53:01.862Z,2.30
2022-12-03T01:55:29.231Z,2.20
2022-12-03T01:58:05.588Z,2.20
2022-12-03T02:00:32.626Z,2.20
2022-12-03T02:03:07.968Z,2.20
2022-12-03T02:05:34.806Z,2.30
2022-12-03T02:08:01.816Z,2.30
2022-12-03T02:10:34.279Z,2.40
2022-12-03T02:13:09.757Z,2.50
2022-12-03T02:15:39.094Z,2.60
2022-12-03T02:18:07.204Z,2.60
2022-12-03T02:20:39.174Z,2.50
2022-12-03T02:23:22.886Z,2.50
2022-12-03T02:25:49.799Z,2.50
2022-12-03T02:28:16.538Z,2.60
2022-12-03T02:30:43.352Z,2.60
2022-12-03T02:33:10.412Z,2.60
2022-12-03T02:35:38.332Z,2.60
2022-12-03T02:38:19.919Z,2.60
2022-12-03T02:40:49.146Z,2.70
2022-12-03T02:43:17.735Z,2.80
2022-12-03T02:45:51.544Z,2.80
2022-12-03T02:48:22.188Z,2.90
2022-12-03T02:50:55.454Z,2.80
2022-12-03T02:53:30.940Z,2.80
2022-12-03T02:55:59.556Z,2.80
2022-12-03T02:58:29.560Z,2.80
2022-12-03T03:00:56.955Z,2.80
2022-12-03T03:03:26.096Z,2.70
2022-12-03T03:05:53.698Z,2.80
2022-12-03T03:08:20.704Z,2.70
2022-12-03T03:10:47.774Z,2.70
2022-12-03T03:13:17.629Z,2.70
2022-12-03T03:15:44.949Z,2.70
2022-12-03T03:18:13.438Z,2.70
2022-12-03T03:20:41.104Z,2.70
2022-12-03T03:23:10.938Z,2.80
2022-12-03T03:25:39.593Z,2.70
2022-12-03T03:28:07.445Z,2.80
2022-12-03T03:30:35.705Z,2.80
2022-12-03T03:33:02.564Z,2.90
2022-12-03T03:35:29.301Z,2.70
2022-12-03T03:37:58.735Z,2.70
2022-12-03T03:40:26.512Z,2.70
2022-12-03T03:42:53.758Z,2.80
2022-12-03T03:45:27.177Z,2.80
2022-12-03T03:47:57.323Z,2.80
2022-12-03T03:50:24.768Z,2.90
2022-12-03T03:52:51.780Z,2.90
2022-12-03T03:55:20.450Z,2.90
2022-12-03T03:57:48.259Z,2.90
2022-12-03T04:00:15.374Z,2.70
2022-12-03T04:02:42.865Z,2.60
2022-12-03T04:05:19.144Z,2.50
2022-12-03T04:07:45.958Z,2.40
2022-12-03T04:10:33.867Z,2.40
2022-12-03T04:13:01.181Z,2.30
2022-12-03T04:15:28.254Z,2.10
2022-12-03T04:18:14.125Z,2.10
2022-12-03T04:20:40.982Z,2.20
2022-12-03T04:23:07.708Z,2.10
2022-12-03T04:26:03.835Z,1.90
2022-12-03T04:28:49.229Z,1.90
2022-12-03T04:31:35.693Z,2.00
2022-12-03T04:34:25.461Z,2.00
2022-12-03T04:36:52.300Z,2.20
2022-12-03T04:39:19.280Z,2.30
2022-12-03T04:41:46.140Z,2.40
2022-12-03T04:44:31.500Z,2.30
2022-12-03T04:46:58.259Z,2.20
2022-12-03T04:49:25.120Z,2.20
2022-12-03T04:51:52.099Z,2.10
2022-12-03T04:54:18.926Z,2.00
2022-12-03T04:56:46.077Z,2.10
2022-12-03T04:59:16.276Z,2.20
2022-12-03T05:01:44.528Z,2.30
2022-12-03T05:04:12.233Z,2.30
2022-12-03T05:06:39.233Z,2.40
2022-12-03T05:09:05.918Z,2.40
2022-12-03T05:11:32.657Z,2.30
2022-12-03T05:13:59.573Z,2.30
2022-12-03T05:16:26.315Z,2.30
2022-12-03T05:18:53.148Z,2.10
2022-12-03T05:21:20.194Z,2.10
2022-12-03T05:23:46.906Z,2.30
2022-12-03T05:26:13.673Z,2.40
2022-12-03T05:28:40.394Z,2.40
2022-12-03T05:31:07.340Z,2.30
2022-12-03T05:33:35.588Z,2.50
2022-12-03T05:36:04.224Z,2.60
2022-12-03T05:38:30.942Z,2.40
2022-12-03T05:40:57.897Z,2.40
2022-12-03T05:43:24.787Z,2.50
2022-12-03T05:45:51.573Z,2.50
2022-12-03T05:48:18.412Z,2.50
2022-12-03T05:50:46.170Z,2.50
2022-12-03T05:53:13.728Z,2.40
2022-12-03T05:55:40.456Z,2.50
2022-12-03T05:58:07.460Z,2.60
2022-12-03T06:00:42.329Z,2.60
2022-12-03T06:03:09.894Z,2.60
2022-12-03T06:05:36.814Z,2.60
2022-12-03T06:08:03.802Z,2.70
2022-12-03T06:10:30.740Z,2.60
2022-12-03T06:12:57.809Z,2.60
2022-12-03T06:15:24.788Z,2.60
2022-12-03T06:17:51.640Z,2.60
2022-12-03T06:20:20.465Z,2.70
2022-12-03T06:22:48.130Z,2.70
2022-12-03T06:25:16.000Z,2.60
2022-12-03T06:27:43.049Z,2.70
2022-12-03T06:30:12.395Z,2.70
2022-12-03T06:32:39.148Z,2.60
2022-12-03T06:35:06.134Z,2.70
2022-12-03T06:37:32.850Z,2.60
2022-12-03T06:39:59.578Z,2.50
2022-12-03T06:42:26.255Z,2.40
2022-12-03T06:44:53.359Z,2.40
2022-12-03T06:47:20.179Z,2.30
2022-12-03T06:49:47.118Z,2.40
2022-12-03T06:52:13.888Z,2.50
2022-12-03T06:54:40.615Z,2.50
2022-12-03T06:57:07.349Z,2.50
2022-12-03T06:59:35.786Z,2.60
2022-12-03T07:02:02.745Z,2.60
2022-12-03T07:04:29.503Z,2.70
2022-12-03T07:06:56.375Z,2.50
2022-12-03T07:09:23.459Z,2.50
2022-12-03T07:11:50.518Z,2.50
2022-12-03T07:14:17.452Z,2.40
2022-12-03T07:16:44.398Z,2.50
2022-12-03T07:19:11.497Z,2.50
2022-12-03T07:21:38.700Z,2.50
2022-12-03T07:24:06.231Z,2.50
2022-12-03T07:26:33.499Z,2.50
2022-12-03T07:29:00.389Z,2.60
2022-12-03T07:31:27.423Z,2.60
2022-12-03T07:33:54.275Z,2.60
2022-12-03T07:36:21.079Z,2.60
2022-12-03T07:38:47.977Z,2.50
2022-12-03T07:41:14.732Z,2.50
2022-12-03T07:43:41.502Z,2.50
2022-12-03T07:46:08.858Z,2.50
2022-12-03T07:48:35.654Z,2.50
2022-12-03T07:51:02.572Z,2.50
2022-12-03T07:53:29.381Z,2.50
2022-12-03T07:55:56.109Z,2.50
2022-12-03T07:58:22.889Z,2.50
2022-12-03T08:00:49.761Z,2.40
2022-12-03T08:03:16.546Z,2.40
2022-12-03T08:05:43.273Z,2.40
2022-12-03T08:08:10.036Z,2.50
2022-12-03T08:10:36.917Z,2.40
2022-12-03T08:13:10.898Z,2.50
2022-12-03T08:15:39.645Z,2.50
2022-12-03T08:18:33.021Z,2.60
2022-12-03T08:20:59.880Z,2.60
2022-12-03T08:23:26.683Z,2.60
2022-12-03T08:25:53.664Z,2.70
2022-12-03T08:28:23.536Z,2.70
2022-12-03T08:31:13.680Z,2.70
2022-12-03T08:33:41.875Z,2.80
2022-12-03T08:36:14.040Z,2.80
2022-12-03T08:38:40.884Z,2.60
2022-12-03T08:41:14.397Z,2.70
2022-12-03T08:43:44.635Z,2.70
2022-12-03T08:46:19.053Z,2.60
2022-12-03T08:48:48.978Z,2.70
2022-12-03T08:51:25.494Z,2.80
2022-12-03T08:54:01.867Z,2.80
2022-12-03T08:56:32.978Z,2.80
2022-12-03T08:59:14.748Z,2.70
2022-12-03T09:01:47.357Z,2.80
2022-12-03T09:04:41.188Z,2.70
2022-12-03T09:07:08.045Z,2.80
2022-12-03T09:09:35.114Z,2.70
2022-12-03T09:12:02.386Z,2.80
2022-12-03T09:14:29.185Z,2.80
2022-12-03T09:16:56.740Z,2.90
2022-12-03T09:19:25.642Z,2.80
2022-12-03T09:21:53.802Z,2.70
2022-12-03T09:24:20.848Z,2.70
2022-12-03T09:26:47.596Z,2.70
2022-12-03T09:29:14.431Z,2.70
2022-12-03T09:31:41.732Z,2.70
2022-12-03T09:34:08.556Z,2.70
2022-12-03T09:36:35.405Z,2.80
2022-12-03T09:39:02.340Z,2.80
2022-12-03T09:41:29.150Z,2.80
2022-12-03T09:44:05.290Z,2.80
2022-12-03T09:46:35.215Z,2.80
2022-12-03T09:49:03.460Z,2.90
2022-12-03T09:51:34.935Z,2.90
2022-12-03T09:54:04.498Z,3.00
2022-12-03T09:56:31.835Z,3.10
2022-12-03T09:58:59.151Z,3.10
2022-12-03T10:01:30.151Z,3.20
2022-12-03T10:03:58.445Z,3.20
2022-12-03T10:06:25.274Z,3.20
2022-12-03T10:08:55.319Z,3.20
2022-12-03T10:11:25.105Z,3.20
2022-12-03T10:13:56.279Z,3.30
2022-12-03T10:16:23.660Z,3.20
2022-12-03T10:18:56.329Z,3.20
2022-12-03T10:21:36.459Z,3.20
2022-12-03T10:24:23.128Z,3.20
2022-12-03T10:26:52.302Z,3.20
2022-12-03T10:29:20.398Z,3.20
2022-12-03T10:32:08.058Z,3.20
2022-12-03T10:34:40.815Z,3.10
2022-12-03T10:37:14.151Z,3.10
2022-12-03T10:39:57.754Z,3.10
2022-12-03T10:42:29.997Z,3.20
2022-12-03T10:45:18.721Z,3.20
2022-12-03T10:48:07.026Z,3.20
2022-12-03T10:50:35.116Z,3.20
2022-12-03T10:53:02.221Z,3.30
2022-12-03T10:55:34.163Z,3.20
2022-12-03T10:58:00.927Z,3.30
2022-12-03T11:00:27.816Z,3.30
2022-12-03T11:02:56.957Z,3.40
2022-12-03T11:05:27.468Z,3.30
2022-12-03T11:07:54.980Z,3.20
2022-12-03T11:10:22.066Z,3.20
2022-12-03T11:13:26.205Z,3.20
2022-12-03T11:15:53.459Z,3.20
2022-12-03T11:18:38.649Z,3.30
2022-12-03T11:21:13.649Z,3.40
2022-12-03T11:23:46.576Z,3.40
2022-12-03T11:26:26.794Z,3.30
2022-12-03T11:28:56.180Z,3.30
2022-12-03T11:31:41.822Z,3.30
2022-12-03T11:34:21.056Z,3.30
2022-12-03T11:37:09.843Z,3.40
2022-12-03T11:39:52.122Z,3.30
2022-12-03T11:42:28.458Z,3.30
2022-12-03T11:45:04.796Z,3.30
2022-12-03T11:48:02.518Z,3.30
2022-12-03T11:50:36.125Z,3.30
2022-12-03T11:53:20.268Z,3.30
2022-12-03T11:55:53.193Z,3.30
2022-12-03T11:58:25.941Z,3.10
2022-12-03T12:00:55.515Z,3.20
2022-12-03T12:03:26.965Z,3.00
2022-12-03T12:06:13.349Z,3.10
2022-12-03T12:08:54.635Z,2.90
2022-12-03T12:11:26.853Z,2.90
2022-12-03T12:13:56.324Z,2.80
2022-12-03T12:16:46.245Z,2.90
2022-12-03T12:19:35.754Z,2.80
2022-12-03T12:22:25.258Z,2.80
2022-12-03T12:24:53.122Z,2.70
2022-12-03T12:27:24.449Z,2.70
2022-12-03T12:29:58.172Z,2.80
2022-12-03T12:32:28.140Z,2.80
2022-12-03T12:35:13.614Z,2.80
2022-12-03T12:37:59.514Z,2.90
2022-12-03T12:40:30.011Z,2.90
2022-12-03T12:42:59.929Z,2.70
2022-12-03T12:45:29.591Z,2.70
2022-12-03T12:48:14.784Z,2.70
2022-12-03T12:50:46.713Z,2.70
2022-12-03T12:53:26.640Z,2.70
2022-12-03T12:56:02.305Z,2.70
2022-12-03T12:58:32.949Z,2.70
2022-12-03T13:01:04.433Z,2.80
2022-12-03T13:03:35.184Z,2.80
2022-12-03T13:06:02.974Z,2.70
2022-12-03T13:08:39.350Z,2.90
2022-12-03T13:11:10.445Z,2.70
2022-12-03T13:13:44.361Z,2.80
2022-12-03T13:16:23.583Z,2.70
2022-12-03T13:18:55.130Z,2.60
2022-12-03T13:21:37.532Z,2.60
2022-12-03T13:24:29.541Z,2.60
2022-12-03T13:26:57.127Z,2.60
2022-12-03T13:29:25.714Z,2.50
2022-12-03T13:32:01.911Z,2.50
2022-12-03T13:34:33.321Z,2.50
2022-12-03T13:37:01.713Z,2.40
2022-12-03T13:39:32.632Z,2.50
2022-12-03T13:42:27.100Z,2.40
2022-12-03T13:44:54.332Z,2.60
2022-12-03T13:47:23.663Z,2.50
2022-12-03T13:50:03.520Z,2.50
2022-12-03T13:52:34.043Z,2.50
2022-12-03T13:55:03.682Z,2.50
2022-12-03T13:57:30.441Z,2.50
2022-12-03T13:59:57.323Z,2.60
2022-12-03T14:02:24.458Z,2.50
2022-12-03T14:04:55.379Z,2.50
2022-12-03T14:07:25.342Z,2.40
2022-12-03T14:09:52.519Z,2.30
2022-12-03T14:12:33.590Z,2.40
2022-12-03T14:15:01.489Z,2.40
2022-12-03T14:17:28.785Z,2.50
2022-12-03T14:19:55.994Z,2.50
2022-12-03T14:22:25.279Z,2.50
2022-12-03T14:24:53.185Z,2.50
2022-12-03T14:27:20.981Z,2.60
2022-12-03T14:29:47.844Z,2.60
2022-12-03T14:32:15.056Z,2.50
2022-12-03T14:34:41.887Z,2.50
2022-12-03T14:37:08.706Z,2.40
2022-12-03T14:39:35.430Z,2.40
2022-12-03T14:42:14.131Z,2.40
2022-12-03T14:44:51.335Z,2.50
2022-12-03T14:47:22.604Z,2.50
2022-12-03T14:49:50.515Z,2.50
2022-12-03T14:52:18.637Z,2.50
2022-12-03T14:54:45.666Z,2.30
2022-12-03T14:57:13.814Z,2.40
2022-12-03T14:59:45.111Z,2.30
2022-12-03T15:02:12.896Z,2.30
2022-12-03T15:04:41.245Z,2.30
2022-12-03T15:07:09.041Z,2.30
2022-12-03T15:09:36.189Z,2.40
2022-12-03T15:12:04.048Z,2.30
2022-12-03T15:14:30.798Z,2.40
2022-12-03T15:16:57.758Z,2.50
2022-12-03T15:19:24.634Z,2.50
2022-12-03T15:21:51.742Z,2.50
2022-12-03T15:24:18.814Z,2.50
2022-12-03T15:26:45.638Z,2.50
2022-12-03T15:29:12.377Z,2.40
2022-12-03T15:31:39.166Z,2.30
2022-12-03T15:34:06.036Z,2.40
2022-12-03T15:36:32.760Z,2.30
2022-12-03T15:38:59.580Z,2.30
2022-12-03T15:41:29.576Z,2.40
2022-12-03T15:44:04.579Z,2.40
2022-12-03T15:46:31.777Z,2.40
2022-12-03T15:48:59.150Z,2.40
2022-12-03T15:51:25.903Z,2.40
2022-12-03T15:53:52.853Z,2.40
2022-12-03T15:56:19.644Z,2.30
2022-12-03T15:58:46.451Z,2.40
2022-12-03T16:01:14.109Z,2.20
2022-12-03T16:03:41.549Z,2.10
2022-12-03T16:06:08.591Z,2.20
2022-12-03T16:08:35.333Z,2.20
2022-12-03T16:11:02.046Z,2.10
2022-12-03T16:13:28.715Z,2.20
2022-12-03T16:15:55.451Z,2.20
2022-12-03T16:18:22.270Z,2.30
2022-12-03T16:20:49.454Z,2.20
2022-12-03T16:23:16.155Z,2.20
2022-12-03T16:25:42.870Z,2.20
2022-12-03T16:28:09.581Z,2.10
2022-12-03T16:30:36.601Z,2.20
2022-12-03T16:33:03.584Z,2.20
2022-12-03T16:35:30.611Z,2.20
2022-12-03T16:37:57.303Z,2.30
2022-12-03T16:40:24.107Z,2.20
2022-12-03T16:42:50.838Z,2.20
2022-12-03T16:45:40.749Z,2.20
2022-12-03T16:48:07.452Z,2.20
2022-12-03T16:50:37.168Z,2.20
2022-12-03T16:53:03.976Z,2.20
2022-12-03T16:55:30.749Z,2.10
2022-12-03T16:57:57.514Z,2.20
2022-12-03T17:00:25.980Z,2.20
2022-12-03T17:02:52.723Z,2.20
2022-12-03T17:05:19.614Z,2.30
2022-12-03T17:07:46.387Z,2.30
2022-12-03T17:10:13.281Z,2.20
2022-12-03T17:13:07.614Z,2.20
2022-12-03T17:15:26.804Z,2.20
2022-12-03T17:17:53.615Z,2.10
2022-12-03T17:20:20.340Z,2.10
2022-12-03T17:22:47.114Z,2.00
2022-12-03T17:25:14.039Z,2.00
2022-12-03T17:27:45.161Z,2.00
2022-12-03T17:30:13.502Z,2.00
2022-12-03T17:32:40.475Z,1.90
2022-12-03T17:35:08.224Z,1.90
2022-12-03T17:37:35.245Z,1.90
2022-12-03T17:40:02.475Z,2.00
2022-12-03T17:42:29.139Z,2.10
2022-12-03T17:44:55.863Z,2.10
2022-12-03T17:47:22.575Z,2.10
2022-12-03T17:49:49.257Z,2.10
2022-12-03T17:52:15.945Z,2.20
2022-12-03T17:55:08.930Z,2.20
2022-12-03T17:57:29.398Z,2.20
2022-12-03T17:59:56.686Z,2.10
2022-12-03T18:02:23.791Z,2.10
2022-12-03T18:04:50.551Z,2.10
2022-12-03T18:07:17.317Z,2.20
2022-12-03T18:09:44.036Z,2.20
2022-12-03T18:12:10.776Z,2.10
2022-12-03T18:14:37.439Z,2.10
2022-12-03T18:17:04.303Z,2.10
2022-12-03T18:19:31.038Z,2.00
2022-12-03T18:21:57.851Z,2.00
2022-12-03T18:24:25.210Z,2.10
2022-12-03T18:26:52.259Z,2.00
2022-12-03T18:29:19.047Z,2.00
2022-12-03T18:31:46.021Z,2.00
2022-12-03T18:34:12.865Z,2.10
2022-12-03T18:36:39.585Z,2.10
2022-12-03T18:39:12.418Z,2.20
2022-12-03T18:41:39.853Z,2.10
2022-12-03T18:44:10.462Z,2.10
2022-12-03T18:46:53.059Z,2.20
2022-12-03T18:49:20.947Z,2.20
2022-12-03T18:51:48.576Z,2.20
2022-12-03T18:54:15.753Z,2.20
2022-12-03T18:56:42.475Z,2.30
2022-12-03T18:59:09.492Z,2.30
2022-12-03T19:01:36.583Z,2.30
2022-12-03T19:04:03.780Z,2.30
2022-12-03T19:06:30.702Z,2.30
2022-12-03T19:08:57.586Z,2.30
2022-12-03T19:11:24.419Z,2.30
2022-12-03T19:13:51.836Z,2.30
2022-12-03T19:16:18.618Z,2.20
2022-12-03T19:18:45.463Z,2.20
2022-12-03T19:21:14.331Z,2.20
2022-12-03T19:23:47.231Z,2.20
2022-12-03T19:26:25.720Z,2.10
2022-12-03T19:28:53.850Z,2.20
2022-12-03T19:31:21.146Z,2.20
2022-12-03T19:33:48.603Z,2.20
2022-12-03T19:36:24.437Z,2.30
2022-12-03T19:38:56.940Z,2.20
2022-12-03T19:41:27.392Z,2.30
2022-12-03T19:43:56.037Z,2.20
2022-12-03T19:46:24.834Z,2.30
2022-12-03T19:48:51.777Z,2.20
2022-12-03T19:51:35.414Z,2.20
2022-12-03T19:54:07.727Z,2.10
2022-12-03T19:56:35.024Z,2.00
2022-12-03T19:59:02.075Z,2.00
2022-12-03T20:01:31.708Z,2.00
2022-12-03T20:04:00.401Z,2.00
2022-12-03T20:06:30.225Z,2.00
2022-12-03T20:08:59.332Z,2.00
2022-12-03T20:11:31.759Z,1.80
2022-12-03T20:14:05.176Z,1.80
2022-12-03T20:16:32.165Z,1.80
2022-12-03T20:19:01.920Z,1.80
2022-12-03T20:21:33.988Z,1.70
2022-12-03T20:24:01.094Z,1.80
2022-12-03T20:26:28.667Z,1.90
2022-12-03T20:28:56.461Z,1.90
2022-12-03T20:31:28.797Z,1.90
2022-12-03T20:33:59.225Z,1.80
2022-12-03T20:36:28.695Z,1.80
2022-12-03T20:38:56.951Z,1.80
2022-12-03T20:41:24.317Z,1.80
2022-12-03T20:43:51.618Z,1.80
2022-12-03T20:46:27.259Z,1.70
2022-12-03T20:48:54.340Z,1.70
2022-12-03T20:51:24.376Z,1.70
2022-12-03T20:53:51.617Z,1.70
2022-12-03T20:56:24.601Z,1.70
2022-12-03T20:58:51.725Z,1.70
2022-12-03T21:01:21.661Z,1.80
2022-12-03T21:03:49.874Z,1.80
2022-12-03T21:06:17.255Z,1.80
2022-12-03T21:08:44.616Z,1.80
2022-12-03T21:11:14.823Z,1.90
2022-12-03T21:13:43.698Z,1.90
2022-12-03T21:16:14.886Z,2.00
2022-12-03T21:18:42.562Z,2.00
2022-12-03T21:21:11.887Z,2.00
2022-12-03T21:23:38.728Z,2.00
2022-12-03T21:26:11.681Z,2.00
2022-12-03T21:28:39.830Z,2.00
2022-12-03T21:31:09.155Z,2.10
2022-12-03T21:33:36.911Z,2.10
2022-12-03T21:36:04.839Z,2.10
2022-12-03T21:38:33.102Z,2.10
2022-12-03T21:41:00.451Z,2.10
2022-12-03T21:43:28.021Z,2.20
2022-12-03T21:45:54.810Z,2.20
2022-12-03T21:48:22.045Z,2.00
2022-12-03T21:51:03.348Z,2.10
2022-12-03T21:53:31.653Z,2.10
2022-12-03T21:55:59.818Z,2.00
2022-12-03T21:58:26.632Z,2.00
2022-12-03T22:00:53.389Z,2.00
2022-12-03T22:03:20.159Z,2.00
2022-12-03T22:05:46.891Z,1.90
2022-12-03T22:08:13.894Z,1.90
2022-12-03T22:10:40.920Z,1.90
2022-12-03T22:13:08.110Z,1.90
2022-12-03T22:15:35.141Z,1.90
2022-12-03T22:18:01.866Z,2.00
2022-12-03T22:20:28.556Z,1.90
2022-12-03T22:22:55.298Z,1.90
2022-12-03T22:25:22.226Z,2.00
2022-12-03T22:27:48.912Z,2.00
2022-12-03T22:30:15.977Z,2.00
2022-12-03T22:32:42.786Z,2.00
2022-12-03T22:35:09.793Z,2.00
2022-12-03T22:37:36.532Z,1.90
2022-12-03T22:40:03.621Z,1.90
2022-12-03T22:42:30.752Z,1.90
2022-12-03T22:44:57.500Z,1.90
2022-12-03T22:47:24.283Z,1.90
2022-12-03T22:49:51.208Z,1.90
2022-12-03T22:52:17.887Z,1.90
2022-12-03T22:54:45.477Z,2.00
2022-12-03T22:57:12.495Z,2.10
2022-12-03T22:59:39.179Z,2.10
2022-12-03T23:02:06.109Z,2.10
2022-12-03T23:04:32.831Z,2.10
2022-12-03T23:06:59.570Z,2.10
2022-12-03T23:09:26.330Z,2.10
2022-12-03T23:11:53.117Z,2.00
2022-12-03T23:14:19.803Z,1.90
2022-12-03T23:16:46.584Z,2.00
2022-12-03T23:19:13.962Z,2.00
2022-12-03T23:21:40.706Z,2.00
2022-12-03T23:24:07.818Z,2.00
2022-12-03T23:26:36.710Z,2.10
2022-12-03T23:29:05.517Z,2.10
2022-12-03T23:31:34.724Z,2.10
2022-12-03T23:34:02.033Z,2.10
2022-12-03T23:36:32.248Z,2.10
2022-12-03T23:38:59.024Z,2.00
2022-12-03T23:41:25.898Z,2.00
2022-12-03T23:43:52.915Z,2.00
2022-12-03T23:46:25.423Z,2.00
2022-12-03T23:48:53.502Z,2.00
2022-12-03T23:51:23.771Z,1.90
2022-12-03T23:53:52.985Z,2.00
2022-12-03T23:56:26.734Z,2.00
2022-12-03T23:58:53.552Z,2.10
